sensor_id;sensor_type;location;lat;lon;timestamp;P1;durP1;ratioP1;P2;durP2;ratioP2
2029;SDS011;1020;48.854;8.830;2022-12-07T00:01:24;11.23;;;9.70;;
2029;SDS011;1020;48.854;8.830;2022-12-07T00:03:53;10.77;;;8.90;;
2029;SDS011;1020;48.854;8.830;2022-12-07T00:06:27;9.93;;;8.93;;
2029;SDS011;1020;48.854;8.830;2022-12-07T00:08:53;10.23;;;9.23;;
2029;SDS011;1020;48.854;8.830;2022-12-07T00:11:21;11.03;;;9.93;;
2029;SDS011;1020;48.854;8.830;2022-12-07T00:13:51;10.77;;;9.67;;
2029;SDS011;1020;48.854;8.830;2022-12-07T00:16:19;10.67;;;9.57;;
2029;SDS011;1020;48.854;8.830;2022-12-07T00:18:46;10.37;;;9.37;;
2029;SDS011;1020;48.854;8.830;2022-12-07T00:21:14;11.30;;;10.00;;
2029;SDS011;1020;48.854;8.830;2022-12-07T00:23:44;11.00;;;9.83;;
2029;SDS011;1020;48.854;8.830;2022-12-07T00:26:15;10.90;;;9.80;;
2029;SDS011;1020;48.854;8.830;2022-12-07T00:28:44;10.07;;;9.07;;
2029;SDS011;1020;48.854;8.830;2022-12-07T00:31:13;11.50;;;10.17;;
2029;SDS011;1020;48.854;8.830;2022-12-07T00:33:41;13.43;;;11.60;;
2029;SDS011;1020;48.854;8.830;2022-12-07T00:36:09;10.80;;;9.50;;
2029;SDS011;1020;48.854;8.830;2022-12-07T00:38:38;10.23;;;9.23;;
2029;SDS011;1020;48.854;8.830;2022-12-07T00:41:08;11.57;;;10.37;;
2029;SDS011;1020;48.854;8.830;2022-12-07T00:43:36;11.37;;;9.90;;
2029;SDS011;1020;48.854;8.830;2022-12-07T00:46:04;10.53;;;9.20;;
2029;SDS011;1020;48.854;8.830;2022-12-07T00:48:31;14.37;;;10.60;;
2029;SDS011;1020;48.854;8.830;2022-12-07T00:50:58;10.27;;;9.27;;
2029;SDS011;1020;48.854;8.830;2022-12-07T00:53:26;11.00;;;9.90;;
2029;SDS011;1020;48.854;8.830;2022-12-07T00:55:53;11.50;;;9.80;;
2029;SDS011;1020;48.854;8.830;2022-12-07T00:58:22;16.30;;;11.20;;
2029;SDS011;1020;48.854;8.830;2022-12-07T01:00:49;13.10;;;10.53;;
2029;SDS011;1020;48.854;8.830;2022-12-07T01:03:16;12.37;;;10.90;;
2029;SDS011;1020;48.854;8.830;2022-12-07T01:05:48;13.67;;;10.77;;
2029;SDS011;1020;48.854;8.830;2022-12-07T01:08:16;12.30;;;9.93;;
2029;SDS011;1020;48.854;8.830;2022-12-07T01:10:43;11.20;;;10.00;;
2029;SDS011;1020;48.854;8.830;2022-12-07T01:13:10;11.67;;;10.47;;
2029;SDS011;1020;48.854;8.830;2022-12-07T01:15:39;10.83;;;9.73;;
2029;SDS011;1020;48.854;8.830;2022-12-07T01:18:07;11.87;;;10.20;;
2029;SDS011;1020;48.854;8.830;2022-12-07T01:20:34;11.90;;;10.47;;
2029;SDS011;1020;48.854;8.830;2022-12-07T01:23:02;11.67;;;10.33;;
2029;SDS011;1020;48.854;8.830;2022-12-07T01:25:29;11.70;;;10.17;;
2029;SDS011;1020;48.854;8.830;2022-12-07T01:27:56;14.30;;;12.23;;
2029;SDS011;1020;48.854;8.830;2022-12-07T01:30:23;13.03;;;11.47;;
2029;SDS011;1020;48.854;8.830;2022-12-07T01:32:51;12.83;;;10.13;;
2029;SDS011;1020;48.854;8.830;2022-12-07T01:35:18;12.40;;;10.43;;
2029;SDS011;1020;48.854;8.830;2022-12-07T01:37:45;12.10;;;10.40;;
2029;SDS011;1020;48.854;8.830;2022-12-07T01:40:12;11.03;;;9.80;;
2029;SDS011;1020;48.854;8.830;2022-12-07T01:42:40;12.10;;;10.77;;
2029;SDS011;1020;48.854;8.830;2022-12-07T01:45:31;11.77;;;10.60;;
2029;SDS011;1020;48.854;8.830;2022-12-07T01:48:06;12.60;;;9.90;;
2029;SDS011;1020;48.854;8.830;2022-12-07T01:50:35;11.87;;;10.23;;
2029;SDS011;1020;48.854;8.830;2022-12-07T01:53:05;11.53;;;10.43;;
2029;SDS011;1020;48.854;8.830;2022-12-07T01:55:35;12.97;;;10.10;;
2029;SDS011;1020;48.854;8.830;2022-12-07T01:58:06;12.10;;;10.50;;
2029;SDS011;1020;48.854;8.830;2022-12-07T02:00:33;11.10;;;10.00;;
2029;SDS011;1020;48.854;8.830;2022-12-07T02:03:01;12.63;;;10.70;;
2029;SDS011;1020;48.854;8.830;2022-12-07T02:05:33;12.40;;;11.10;;
2029;SDS011;1020;48.854;8.830;2022-12-07T02:08:01;11.80;;;10.60;;
2029;SDS011;1020;48.854;8.830;2022-12-07T02:10:29;12.47;;;10.70;;
2029;SDS011;1020;48.854;8.830;2022-12-07T02:12:58;12.20;;;9.87;;
2029;SDS011;1020;48.854;8.830;2022-12-07T02:15:28;12.00;;;10.70;;
2029;SDS011;1020;48.854;8.830;2022-12-07T02:18:04;12.47;;;10.60;;
2029;SDS011;1020;48.854;8.830;2022-12-07T02:20:38;10.13;;;9.00;;
2029;SDS011;1020;48.854;8.830;2022-12-07T02:26:19;10.07;;;9.07;;
2029;SDS011;1020;48.854;8.830;2022-12-07T02:29:10;9.67;;;8.70;;
2029;SDS011;1020;48.854;8.830;2022-12-07T02:31:43;10.67;;;9.50;;
2029;SDS011;1020;48.854;8.830;2022-12-07T02:34:18;11.10;;;9.63;;
2029;SDS011;1020;48.854;8.830;2022-12-07T02:36:53;12.70;;;11.37;;
2029;SDS011;1020;48.854;8.830;2022-12-07T02:39:25;11.83;;;10.60;;
2029;SDS011;1020;48.854;8.830;2022-12-07T02:41:58;14.43;;;11.00;;
2029;SDS011;1020;48.854;8.830;2022-12-07T02:44:30;10.70;;;9.63;;
2029;SDS011;1020;48.854;8.830;2022-12-07T02:47:05;14.23;;;11.13;;
2029;SDS011;1020;48.854;8.830;2022-12-07T02:49:36;12.27;;;10.83;;
2029;SDS011;1020;48.854;8.830;2022-12-07T02:52:05;13.27;;;10.73;;
2029;SDS011;1020;48.854;8.830;2022-12-07T02:54:32;11.70;;;9.33;;
2029;SDS011;1020;48.854;8.830;2022-12-07T02:57:00;14.27;;;11.40;;
2029;SDS011;1020;48.854;8.830;2022-12-07T02:59:39;16.27;;;13.70;;
2029;SDS011;1020;48.854;8.830;2022-12-07T03:02:19;17.87;;;12.30;;
2029;SDS011;1020;48.854;8.830;2022-12-07T03:04:52;13.00;;;11.00;;
2029;SDS011;1020;48.854;8.830;2022-12-07T03:07:34;11.80;;;10.27;;
2029;SDS011;1020;48.854;8.830;2022-12-07T03:10:12;12.03;;;10.70;;
2029;SDS011;1020;48.854;8.830;2022-12-07T03:12:46;13.73;;;11.57;;
2029;SDS011;1020;48.854;8.830;2022-12-07T03:15:23;10.97;;;9.73;;
2029;SDS011;1020;48.854;8.830;2022-12-07T03:17:53;11.17;;;9.40;;
2029;SDS011;1020;48.854;8.830;2022-12-07T03:20:23;11.43;;;10.23;;
2029;SDS011;1020;48.854;8.830;2022-12-07T03:22:51;10.20;;;9.10;;
2029;SDS011;1020;48.854;8.830;2022-12-07T03:25:20;10.30;;;8.63;;
2029;SDS011;1020;48.854;8.830;2022-12-07T03:27:49;11.43;;;9.87;;
2029;SDS011;1020;48.854;8.830;2022-12-07T03:30:22;10.83;;;9.73;;
2029;SDS011;1020;48.854;8.830;2022-12-07T03:32:54;9.60;;;8.60;;
2029;SDS011;1020;48.854;8.830;2022-12-07T03:35:25;9.70;;;8.73;;
2029;SDS011;1020;48.854;8.830;2022-12-07T03:37:55;8.30;;;7.50;;
2029;SDS011;1020;48.854;8.830;2022-12-07T03:40:26;10.10;;;8.40;;
2029;SDS011;1020;48.854;8.830;2022-12-07T03:42:56;9.20;;;8.30;;
2029;SDS011;1020;48.854;8.830;2022-12-07T03:45:29;9.20;;;8.20;;
2029;SDS011;1020;48.854;8.830;2022-12-07T03:48:04;8.70;;;7.87;;
2029;SDS011;1020;48.854;8.830;2022-12-07T03:50:36;8.80;;;7.90;;
2029;SDS011;1020;48.854;8.830;2022-12-07T03:53:08;9.30;;;8.30;;
2029;SDS011;1020;48.854;8.830;2022-12-07T03:55:40;9.87;;;8.23;;
2029;SDS011;1020;48.854;8.830;2022-12-07T03:58:10;9.37;;;8.47;;
2029;SDS011;1020;48.854;8.830;2022-12-07T04:00:41;9.80;;;8.37;;
2029;SDS011;1020;48.854;8.830;2022-12-07T04:03:08;8.83;;;7.93;;
2029;SDS011;1020;48.854;8.830;2022-12-07T04:05:36;9.00;;;8.10;;
2029;SDS011;1020;48.854;8.830;2022-12-07T04:08:03;9.03;;;8.03;;
2029;SDS011;1020;48.854;8.830;2022-12-07T04:10:30;9.77;;;8.63;;
2029;SDS011;1020;48.854;8.830;2022-12-07T04:12:57;8.57;;;7.77;;
2029;SDS011;1020;48.854;8.830;2022-12-07T04:15:24;8.70;;;7.47;;
2029;SDS011;1020;48.854;8.830;2022-12-07T04:17:52;8.27;;;7.37;;
2029;SDS011;1020;48.854;8.830;2022-12-07T04:20:19;8.60;;;7.50;;
2029;SDS011;1020;48.854;8.830;2022-12-07T04:22:47;7.50;;;6.80;;
2029;SDS011;1020;48.854;8.830;2022-12-07T04:25:14;6.47;;;5.77;;
2029;SDS011;1020;48.854;8.830;2022-12-07T04:27:41;8.57;;;7.67;;
2029;SDS011;1020;48.854;8.830;2022-12-07T04:30:08;6.67;;;6.00;;
2029;SDS011;1020;48.854;8.830;2022-12-07T04:32:35;6.33;;;5.73;;
2029;SDS011;1020;48.854;8.830;2022-12-07T04:35:04;5.60;;;5.07;;
2029;SDS011;1020;48.854;8.830;2022-12-07T04:37:31;7.20;;;5.77;;
2029;SDS011;1020;48.854;8.830;2022-12-07T04:39:58;7.20;;;6.50;;
2029;SDS011;1020;48.854;8.830;2022-12-07T04:42:25;6.60;;;5.90;;
2029;SDS011;1020;48.854;8.830;2022-12-07T04:44:52;6.67;;;5.80;;
2029;SDS011;1020;48.854;8.830;2022-12-07T04:47:20;8.13;;;7.33;;
2029;SDS011;1020;48.854;8.830;2022-12-07T04:49:47;7.80;;;7.03;;
2029;SDS011;1020;48.854;8.830;2022-12-07T04:52:15;6.83;;;6.27;;
2029;SDS011;1020;48.854;8.830;2022-12-07T04:54:42;6.63;;;5.93;;
2029;SDS011;1020;48.854;8.830;2022-12-07T04:57:09;5.83;;;5.30;;
2029;SDS011;1020;48.854;8.830;2022-12-07T04:59:35;5.40;;;4.87;;
2029;SDS011;1020;48.854;8.830;2022-12-07T05:02:02;6.00;;;4.57;;
2029;SDS011;1020;48.854;8.830;2022-12-07T05:04:29;5.13;;;4.73;;
2029;SDS011;1020;48.854;8.830;2022-12-07T05:06:56;5.80;;;5.30;;
2029;SDS011;1020;48.854;8.830;2022-12-07T05:09:24;3.80;;;3.40;;
2029;SDS011;1020;48.854;8.830;2022-12-07T05:11:51;4.90;;;4.50;;
2029;SDS011;1020;48.854;8.830;2022-12-07T05:14:18;4.90;;;4.40;;
2029;SDS011;1020;48.854;8.830;2022-12-07T05:16:47;4.53;;;4.10;;
2029;SDS011;1020;48.854;8.830;2022-12-07T05:19:14;4.93;;;4.13;;
2029;SDS011;1020;48.854;8.830;2022-12-07T05:21:42;6.70;;;4.40;;
2029;SDS011;1020;48.854;8.830;2022-12-07T05:24:10;4.77;;;4.27;;
2029;SDS011;1020;48.854;8.830;2022-12-07T05:26:41;4.50;;;3.87;;
2029;SDS011;1020;48.854;8.830;2022-12-07T05:29:10;4.40;;;4.00;;
2029;SDS011;1020;48.854;8.830;2022-12-07T05:31:41;5.20;;;4.70;;
2029;SDS011;1020;48.854;8.830;2022-12-07T05:37:24;4.77;;;4.20;;
2029;SDS011;1020;48.854;8.830;2022-12-07T05:39:52;5.83;;;5.20;;
2029;SDS011;1020;48.854;8.830;2022-12-07T05:42:23;7.00;;;5.93;;
2029;SDS011;1020;48.854;8.830;2022-12-07T05:44:53;6.10;;;5.50;;
2029;SDS011;1020;48.854;8.830;2022-12-07T05:47:22;6.77;;;6.07;;
2029;SDS011;1020;48.854;8.830;2022-12-07T05:50:00;7.67;;;6.50;;
2029;SDS011;1020;48.854;8.830;2022-12-07T05:52:28;7.37;;;6.63;;
2029;SDS011;1020;48.854;8.830;2022-12-07T05:54:57;6.93;;;6.17;;
2029;SDS011;1020;48.854;8.830;2022-12-07T05:57:28;7.53;;;6.27;;
2029;SDS011;1020;48.854;8.830;2022-12-07T05:59:58;6.57;;;5.97;;
2029;SDS011;1020;48.854;8.830;2022-12-07T06:02:25;6.90;;;6.20;;
2029;SDS011;1020;48.854;8.830;2022-12-07T06:04:54;6.37;;;5.23;;
2029;SDS011;1020;48.854;8.830;2022-12-07T06:07:23;5.57;;;4.73;;
2029;SDS011;1020;48.854;8.830;2022-12-07T06:09:52;8.73;;;4.93;;
2029;SDS011;1020;48.854;8.830;2022-12-07T06:12:20;5.67;;;4.70;;
2029;SDS011;1020;48.854;8.830;2022-12-07T06:15:06;6.67;;;5.23;;
2029;SDS011;1020;48.854;8.830;2022-12-07T06:17:33;6.03;;;5.20;;
2029;SDS011;1020;48.854;8.830;2022-12-07T06:20:00;5.70;;;4.23;;
2029;SDS011;1020;48.854;8.830;2022-12-07T06:22:27;4.53;;;4.10;;
2029;SDS011;1020;48.854;8.830;2022-12-07T06:24:54;5.40;;;4.90;;
2029;SDS011;1020;48.854;8.830;2022-12-07T06:27:21;5.83;;;5.33;;
2029;SDS011;1020;48.854;8.830;2022-12-07T06:29:47;7.33;;;4.23;;
2029;SDS011;1020;48.854;8.830;2022-12-07T06:32:15;4.67;;;4.23;;
2029;SDS011;1020;48.854;8.830;2022-12-07T06:34:42;4.57;;;4.13;;
2029;SDS011;1020;48.854;8.830;2022-12-07T06:37:09;5.13;;;4.67;;
2029;SDS011;1020;48.854;8.830;2022-12-07T06:39:36;5.80;;;4.53;;
2029;SDS011;1020;48.854;8.830;2022-12-07T06:42:03;5.50;;;4.20;;
2029;SDS011;1020;48.854;8.830;2022-12-07T06:44:30;4.80;;;3.90;;
2029;SDS011;1020;48.854;8.830;2022-12-07T06:46:57;5.80;;;5.07;;
2029;SDS011;1020;48.854;8.830;2022-12-07T06:49:26;4.20;;;3.80;;
2029;SDS011;1020;48.854;8.830;2022-12-07T06:51:52;4.93;;;4.50;;
2029;SDS011;1020;48.854;8.830;2022-12-07T06:54:19;4.00;;;3.63;;
2029;SDS011;1020;48.854;8.830;2022-12-07T06:56:46;3.83;;;3.53;;
2029;SDS011;1020;48.854;8.830;2022-12-07T06:59:13;4.93;;;4.53;;
2029;SDS011;1020;48.854;8.830;2022-12-07T07:01:40;4.47;;;4.03;;
2029;SDS011;1020;48.854;8.830;2022-12-07T07:04:06;4.43;;;4.03;;
2029;SDS011;1020;48.854;8.830;2022-12-07T07:06:34;3.80;;;3.50;;
2029;SDS011;1020;48.854;8.830;2022-12-07T07:09:01;5.40;;;3.80;;
2029;SDS011;1020;48.854;8.830;2022-12-07T07:11:28;5.97;;;5.37;;
2029;SDS011;1020;48.854;8.830;2022-12-07T07:13:55;6.17;;;5.20;;
2029;SDS011;1020;48.854;8.830;2022-12-07T07:16:27;7.37;;;5.20;;
2029;SDS011;1020;48.854;8.830;2022-12-07T07:18:54;10.27;;;8.90;;
2029;SDS011;1020;48.854;8.830;2022-12-07T07:21:21;23.77;;;16.80;;
2029;SDS011;1020;48.854;8.830;2022-12-07T07:23:49;16.33;;;10.30;;
2029;SDS011;1020;48.854;8.830;2022-12-07T07:26:16;16.17;;;12.70;;
2029;SDS011;1020;48.854;8.830;2022-12-07T07:28:43;6.07;;;5.43;;
2029;SDS011;1020;48.854;8.830;2022-12-07T07:31:10;12.67;;;11.43;;
2029;SDS011;1020;48.854;8.830;2022-12-07T07:33:37;11.00;;;9.90;;
2029;SDS011;1020;48.854;8.830;2022-12-07T07:36:04;9.67;;;8.83;;
2029;SDS011;1020;48.854;8.830;2022-12-07T07:38:32;6.70;;;6.00;;
2029;SDS011;1020;48.854;8.830;2022-12-07T07:41:00;7.13;;;6.50;;
2029;SDS011;1020;48.854;8.830;2022-12-07T07:43:26;4.57;;;4.10;;
2029;SDS011;1020;48.854;8.830;2022-12-07T07:45:53;7.17;;;6.47;;
2029;SDS011;1020;48.854;8.830;2022-12-07T07:48:20;5.37;;;4.40;;
2029;SDS011;1020;48.854;8.830;2022-12-07T07:50:47;3.50;;;3.20;;
2029;SDS011;1020;48.854;8.830;2022-12-07T07:53:14;5.00;;;4.60;;
2029;SDS011;1020;48.854;8.830;2022-12-07T07:55:41;6.80;;;6.20;;
2029;SDS011;1020;48.854;8.830;2022-12-07T07:58:09;6.23;;;5.60;;
2029;SDS011;1020;48.854;8.830;2022-12-07T08:00:36;5.70;;;5.13;;
2029;SDS011;1020;48.854;8.830;2022-12-07T08:03:02;6.07;;;5.47;;
2029;SDS011;1020;48.854;8.830;2022-12-07T08:05:29;5.83;;;4.33;;
2029;SDS011;1020;48.854;8.830;2022-12-07T08:07:57;4.10;;;3.70;;
2029;SDS011;1020;48.854;8.830;2022-12-07T08:10:23;3.93;;;3.53;;
2029;SDS011;1020;48.854;8.830;2022-12-07T08:12:51;3.50;;;3.20;;
2029;SDS011;1020;48.854;8.830;2022-12-07T08:15:37;4.47;;;4.07;;
2029;SDS011;1020;48.854;8.830;2022-12-07T08:18:05;4.70;;;4.23;;
2029;SDS011;1020;48.854;8.830;2022-12-07T08:20:33;3.97;;;3.50;;
2029;SDS011;1020;48.854;8.830;2022-12-07T08:23:00;4.13;;;3.53;;
2029;SDS011;1020;48.854;8.830;2022-12-07T08:25:27;4.03;;;3.63;;
2029;SDS011;1020;48.854;8.830;2022-12-07T08:27:55;3.80;;;3.47;;
2029;SDS011;1020;48.854;8.830;2022-12-07T08:30:21;3.80;;;3.50;;
2029;SDS011;1020;48.854;8.830;2022-12-07T08:32:50;4.37;;;3.97;;
2029;SDS011;1020;48.854;8.830;2022-12-07T08:35:17;4.00;;;3.50;;
2029;SDS011;1020;48.854;8.830;2022-12-07T08:37:43;4.10;;;3.70;;
2029;SDS011;1020;48.854;8.830;2022-12-07T08:40:11;3.63;;;3.33;;
2029;SDS011;1020;48.854;8.830;2022-12-07T08:42:40;4.20;;;3.33;;
2029;SDS011;1020;48.854;8.830;2022-12-07T08:45:08;3.90;;;3.60;;
2029;SDS011;1020;48.854;8.830;2022-12-07T08:47:37;3.70;;;3.40;;
2029;SDS011;1020;48.854;8.830;2022-12-07T08:50:09;3.47;;;3.17;;
2029;SDS011;1020;48.854;8.830;2022-12-07T08:52:37;4.40;;;4.00;;
2029;SDS011;1020;48.854;8.830;2022-12-07T08:55:06;6.10;;;5.20;;
2029;SDS011;1020;48.854;8.830;2022-12-07T08:57:35;13.33;;;10.97;;
2029;SDS011;1020;48.854;8.830;2022-12-07T09:00:03;5.67;;;4.10;;
2029;SDS011;1020;48.854;8.830;2022-12-07T09:02:30;3.67;;;3.37;;
2029;SDS011;1020;48.854;8.830;2022-12-07T09:04:57;4.53;;;3.50;;
2029;SDS011;1020;48.854;8.830;2022-12-07T09:07:25;4.87;;;3.97;;
2029;SDS011;1020;48.854;8.830;2022-12-07T09:09:53;3.70;;;3.33;;
2029;SDS011;1020;48.854;8.830;2022-12-07T09:12:20;4.50;;;3.50;;
2029;SDS011;1020;48.854;8.830;2022-12-07T09:14:46;4.33;;;3.93;;
2029;SDS011;1020;48.854;8.830;2022-12-07T09:17:13;3.47;;;3.17;;
2029;SDS011;1020;48.854;8.830;2022-12-07T09:19:40;3.60;;;3.30;;
2029;SDS011;1020;48.854;8.830;2022-12-07T09:22:07;4.00;;;3.40;;
2029;SDS011;1020;48.854;8.830;2022-12-07T09:24:35;3.50;;;3.23;;
2029;SDS011;1020;48.854;8.830;2022-12-07T09:27:02;4.13;;;3.73;;
2029;SDS011;1020;48.854;8.830;2022-12-07T09:29:29;3.83;;;3.30;;
2029;SDS011;1020;48.854;8.830;2022-12-07T09:31:56;3.63;;;3.33;;
2029;SDS011;1020;48.854;8.830;2022-12-07T09:34:23;3.43;;;3.00;;
2029;SDS011;1020;48.854;8.830;2022-12-07T09:36:51;3.50;;;3.20;;
2029;SDS011;1020;48.854;8.830;2022-12-07T09:39:17;2.80;;;2.60;;
2029;SDS011;1020;48.854;8.830;2022-12-07T09:41:46;3.13;;;2.83;;
2029;SDS011;1020;48.854;8.830;2022-12-07T09:44:13;3.10;;;2.90;;
2029;SDS011;1020;48.854;8.830;2022-12-07T09:46:49;4.20;;;2.90;;
2029;SDS011;1020;48.854;8.830;2022-12-07T09:49:19;4.20;;;3.57;;
2029;SDS011;1020;48.854;8.830;2022-12-07T09:51:55;5.77;;;4.93;;
2029;SDS011;1020;48.854;8.830;2022-12-07T09:54:27;6.10;;;5.03;;
2029;SDS011;1020;48.854;8.830;2022-12-07T09:56:57;4.07;;;3.70;;
2029;SDS011;1020;48.854;8.830;2022-12-07T09:59:24;3.10;;;2.67;;
2029;SDS011;1020;48.854;8.830;2022-12-07T10:01:52;4.37;;;3.97;;
2029;SDS011;1020;48.854;8.830;2022-12-07T10:04:20;5.70;;;3.87;;
2029;SDS011;1020;48.854;8.830;2022-12-07T10:06:48;4.57;;;3.70;;
2029;SDS011;1020;48.854;8.830;2022-12-07T10:09:16;2.87;;;2.67;;
2029;SDS011;1020;48.854;8.830;2022-12-07T10:12:02;2.50;;;2.30;;
2029;SDS011;1020;48.854;8.830;2022-12-07T10:14:31;2.80;;;2.60;;
2029;SDS011;1020;48.854;8.830;2022-12-07T10:16:59;2.80;;;2.47;;
2029;SDS011;1020;48.854;8.830;2022-12-07T10:19:27;2.40;;;2.20;;
2029;SDS011;1020;48.854;8.830;2022-12-07T10:21:59;2.93;;;2.67;;
2029;SDS011;1020;48.854;8.830;2022-12-07T10:24:31;2.40;;;2.20;;
2029;SDS011;1020;48.854;8.830;2022-12-07T10:26:58;4.17;;;3.60;;
2029;SDS011;1020;48.854;8.830;2022-12-07T10:29:28;3.30;;;3.00;;
2029;SDS011;1020;48.854;8.830;2022-12-07T10:31:58;3.80;;;3.40;;
2029;SDS011;1020;48.854;8.830;2022-12-07T10:34:27;3.53;;;3.20;;
2029;SDS011;1020;48.854;8.830;2022-12-07T10:37:07;4.50;;;3.80;;
2029;SDS011;1020;48.854;8.830;2022-12-07T10:39:41;8.20;;;6.13;;
2029;SDS011;1020;48.854;8.830;2022-12-07T10:42:15;16.00;;;9.60;;
2029;SDS011;1020;48.854;8.830;2022-12-07T10:44:45;5.90;;;5.30;;
2029;SDS011;1020;48.854;8.830;2022-12-07T10:47:21;5.20;;;4.70;;
2029;SDS011;1020;48.854;8.830;2022-12-07T10:53:04;5.70;;;4.70;;
2029;SDS011;1020;48.854;8.830;2022-12-07T10:55:46;6.53;;;5.80;;
2029;SDS011;1020;48.854;8.830;2022-12-07T10:58:28;6.70;;;5.60;;
2029;SDS011;1020;48.854;8.830;2022-12-07T11:01:10;6.00;;;5.40;;
2029;SDS011;1020;48.854;8.830;2022-12-07T11:03:46;7.00;;;5.00;;
2029;SDS011;1020;48.854;8.830;2022-12-07T11:06:29;5.67;;;5.00;;
2029;SDS011;1020;48.854;8.830;2022-12-07T11:09:03;6.53;;;5.83;;
2029;SDS011;1020;48.854;8.830;2022-12-07T11:11:53;7.60;;;6.90;;
2029;SDS011;1020;48.854;8.830;2022-12-07T11:14:30;8.20;;;6.40;;
2029;SDS011;1020;48.854;8.830;2022-12-07T11:17:04;9.57;;;6.73;;
2029;SDS011;1020;48.854;8.830;2022-12-07T11:19:47;9.27;;;6.43;;
2029;SDS011;1020;48.854;8.830;2022-12-07T11:22:26;7.80;;;6.60;;
2029;SDS011;1020;48.854;8.830;2022-12-07T11:25:02;10.27;;;6.23;;
2029;SDS011;1020;48.854;8.830;2022-12-07T11:27:44;7.43;;;6.20;;
2029;SDS011;1020;48.854;8.830;2022-12-07T11:30:22;8.33;;;6.60;;
2029;SDS011;1020;48.854;8.830;2022-12-07T11:33:01;8.70;;;7.40;;
2029;SDS011;1020;48.854;8.830;2022-12-07T11:35:40;11.53;;;9.63;;
2029;SDS011;1020;48.854;8.830;2022-12-07T11:38:18;9.60;;;7.80;;
2029;SDS011;1020;48.854;8.830;2022-12-07T11:40:48;7.70;;;6.70;;
2029;SDS011;1020;48.854;8.830;2022-12-07T11:43:20;8.23;;;7.43;;
2029;SDS011;1020;48.854;8.830;2022-12-07T11:45:52;8.53;;;7.03;;
2029;SDS011;1020;48.854;8.830;2022-12-07T11:48:30;9.63;;;8.30;;
2029;SDS011;1020;48.854;8.830;2022-12-07T11:51:01;7.20;;;6.50;;
2029;SDS011;1020;48.854;8.830;2022-12-07T11:53:30;9.37;;;8.37;;
2029;SDS011;1020;48.854;8.830;2022-12-07T11:56:02;8.63;;;7.00;;
2029;SDS011;1020;48.854;8.830;2022-12-07T11:58:37;12.10;;;9.10;;
2029;SDS011;1020;48.854;8.830;2022-12-07T12:01:19;9.77;;;8.77;;
2029;SDS011;1020;48.854;8.830;2022-12-07T12:03:58;8.07;;;7.00;;
2029;SDS011;1020;48.854;8.830;2022-12-07T12:06:31;8.47;;;7.57;;
2029;SDS011;1020;48.854;8.830;2022-12-07T12:09:01;8.57;;;7.33;;
2029;SDS011;1020;48.854;8.830;2022-12-07T12:11:37;10.57;;;9.00;;
2029;SDS011;1020;48.854;8.830;2022-12-07T12:14:19;10.23;;;8.67;;
2029;SDS011;1020;48.854;8.830;2022-12-07T12:17:07;9.70;;;8.10;;
2029;SDS011;1020;48.854;8.830;2022-12-07T12:19:56;9.07;;;8.17;;
2029;SDS011;1020;48.854;8.830;2022-12-07T12:22:28;9.47;;;8.43;;
2029;SDS011;1020;48.854;8.830;2022-12-07T12:25:02;9.03;;;8.13;;
2029;SDS011;1020;48.854;8.830;2022-12-07T12:27:32;8.33;;;7.37;;
2029;SDS011;1020;48.854;8.830;2022-12-07T12:30:01;8.70;;;7.20;;
2029;SDS011;1020;48.854;8.830;2022-12-07T12:32:32;12.10;;;7.10;;
2029;SDS011;1020;48.854;8.830;2022-12-07T12:37:49;8.03;;;7.00;;
2029;SDS011;1020;48.854;8.830;2022-12-07T12:40:38;8.53;;;7.70;;
2029;SDS011;1020;48.854;8.830;2022-12-07T12:49:30;7.63;;;6.87;;
2029;SDS011;1020;48.854;8.830;2022-12-07T12:55:12;12.47;;;8.50;;
2029;SDS011;1020;48.854;8.830;2022-12-07T12:57:43;10.30;;;7.63;;
2029;SDS011;1020;48.854;8.830;2022-12-07T13:00:15;9.57;;;8.00;;
2029;SDS011;1020;48.854;8.830;2022-12-07T13:02:47;10.07;;;8.97;;
2029;SDS011;1020;48.854;8.830;2022-12-07T13:05:16;8.67;;;7.43;;
2029;SDS011;1020;48.854;8.830;2022-12-07T13:07:53;7.67;;;6.90;;
2029;SDS011;1020;48.854;8.830;2022-12-07T13:10:30;7.20;;;6.50;;
2029;SDS011;1020;48.854;8.830;2022-12-07T13:13:08;10.53;;;7.53;;
2029;SDS011;1020;48.854;8.830;2022-12-07T13:18:55;8.20;;;6.33;;
2029;SDS011;1020;48.854;8.830;2022-12-07T13:24:16;7.73;;;6.80;;
2029;SDS011;1020;48.854;8.830;2022-12-07T13:26:46;7.77;;;6.30;;
2029;SDS011;1020;48.854;8.830;2022-12-07T13:29:13;8.90;;;6.70;;
2029;SDS011;1020;48.854;8.830;2022-12-07T13:31:42;6.90;;;6.10;;
2029;SDS011;1020;48.854;8.830;2022-12-07T13:34:30;6.63;;;5.93;;
2029;SDS011;1020;48.854;8.830;2022-12-07T13:36:58;8.43;;;6.50;;
2029;SDS011;1020;48.854;8.830;2022-12-07T13:39:27;6.17;;;5.57;;
2029;SDS011;1020;48.854;8.830;2022-12-07T13:41:56;7.87;;;7.17;;
2029;SDS011;1020;48.854;8.830;2022-12-07T13:44:24;6.33;;;5.23;;
2029;SDS011;1020;48.854;8.830;2022-12-07T13:46:54;5.93;;;5.40;;
2029;SDS011;1020;48.854;8.830;2022-12-07T13:49:26;4.73;;;4.33;;
2029;SDS011;1020;48.854;8.830;2022-12-07T13:51:55;5.50;;;4.97;;
2029;SDS011;1020;48.854;8.830;2022-12-07T13:54:43;5.27;;;4.77;;
2029;SDS011;1020;48.854;8.830;2022-12-07T13:57:11;5.40;;;4.83;;
2029;SDS011;1020;48.854;8.830;2022-12-07T13:59:38;4.77;;;4.30;;
2029;SDS011;1020;48.854;8.830;2022-12-07T14:02:16;5.00;;;4.60;;
2029;SDS011;1020;48.854;8.830;2022-12-07T14:04:46;5.47;;;4.97;;
2029;SDS011;1020;48.854;8.830;2022-12-07T14:07:22;5.53;;;5.03;;
2029;SDS011;1020;48.854;8.830;2022-12-07T14:09:55;5.30;;;4.80;;
2029;SDS011;1020;48.854;8.830;2022-12-07T14:12:25;7.10;;;6.43;;
2029;SDS011;1020;48.854;8.830;2022-12-07T14:14:53;7.40;;;6.70;;
2029;SDS011;1020;48.854;8.830;2022-12-07T14:17:21;7.77;;;5.83;;
2029;SDS011;1020;48.854;8.830;2022-12-07T14:19:50;9.43;;;8.30;;
2029;SDS011;1020;48.854;8.830;2022-12-07T14:22:21;10.83;;;9.00;;
2029;SDS011;1020;48.854;8.830;2022-12-07T14:27:51;11.57;;;10.37;;
2029;SDS011;1020;48.854;8.830;2022-12-07T14:30:21;11.60;;;10.37;;
2029;SDS011;1020;48.854;8.830;2022-12-07T14:32:50;10.97;;;9.43;;
2029;SDS011;1020;48.854;8.830;2022-12-07T14:35:19;10.27;;;9.17;;
2029;SDS011;1020;48.854;8.830;2022-12-07T14:37:47;12.63;;;9.80;;
2029;SDS011;1020;48.854;8.830;2022-12-07T14:40:16;9.30;;;8.30;;
2029;SDS011;1020;48.854;8.830;2022-12-07T14:42:45;12.50;;;11.20;;
2029;SDS011;1020;48.854;8.830;2022-12-07T14:45:16;10.93;;;9.50;;
2029;SDS011;1020;48.854;8.830;2022-12-07T14:47:45;9.73;;;8.73;;
2029;SDS011;1020;48.854;8.830;2022-12-07T14:50:13;9.70;;;8.90;;
2029;SDS011;1020;48.854;8.830;2022-12-07T14:52:41;10.13;;;9.00;;
2029;SDS011;1020;48.854;8.830;2022-12-07T14:55:12;10.57;;;9.40;;
2029;SDS011;1020;48.854;8.830;2022-12-07T14:57:41;11.57;;;10.37;;
2029;SDS011;1020;48.854;8.830;2022-12-07T15:00:09;10.97;;;9.40;;
2029;SDS011;1020;48.854;8.830;2022-12-07T15:02:41;13.70;;;11.17;;
2029;SDS011;1020;48.854;8.830;2022-12-07T15:05:08;11.77;;;10.40;;
2029;SDS011;1020;48.854;8.830;2022-12-07T15:07:35;11.73;;;9.83;;
2029;SDS011;1020;48.854;8.830;2022-12-07T15:10:03;14.73;;;12.43;;
2029;SDS011;1020;48.854;8.830;2022-12-07T15:12:30;12.37;;;9.30;;
2029;SDS011;1020;48.854;8.830;2022-12-07T15:14:57;14.17;;;11.50;;
2029;SDS011;1020;48.854;8.830;2022-12-07T15:17:26;15.60;;;11.67;;
2029;SDS011;1020;48.854;8.830;2022-12-07T15:19:54;11.53;;;10.33;;
2029;SDS011;1020;48.854;8.830;2022-12-07T15:22:21;14.10;;;11.40;;
2029;SDS011;1020;48.854;8.830;2022-12-07T15:24:48;13.43;;;10.60;;
2029;SDS011;1020;48.854;8.830;2022-12-07T15:27:15;14.17;;;11.30;;
2029;SDS011;1020;48.854;8.830;2022-12-07T15:29:42;13.17;;;11.03;;
2029;SDS011;1020;48.854;8.830;2022-12-07T15:32:09;12.70;;;11.20;;
2029;SDS011;1020;48.854;8.830;2022-12-07T15:34:35;13.97;;;10.17;;
2029;SDS011;1020;48.854;8.830;2022-12-07T15:37:03;12.97;;;9.97;;
2029;SDS011;1020;48.854;8.830;2022-12-07T15:39:31;13.90;;;11.17;;
2029;SDS011;1020;48.854;8.830;2022-12-07T15:41:58;17.63;;;12.40;;
2029;SDS011;1020;48.854;8.830;2022-12-07T15:44:24;14.37;;;12.50;;
2029;SDS011;1020;48.854;8.830;2022-12-07T15:47:09;15.50;;;12.87;;
2029;SDS011;1020;48.854;8.830;2022-12-07T15:49:35;15.33;;;12.70;;
2029;SDS011;1020;48.854;8.830;2022-12-07T15:52:04;13.27;;;11.50;;
2029;SDS011;1020;48.854;8.830;2022-12-07T15:54:31;18.33;;;14.20;;
2029;SDS011;1020;48.854;8.830;2022-12-07T15:56:58;28.60;;;20.20;;